X  Chiuso Dati meteorologici dell'aviazione (METAR)     EFPO Pori Airport
Temperatura
15°C Temperatura
8°C Punto di rugiada
63% Umidità



Vento
5 M/S
12 MPH
19 KM/H
10 KTS



160°
SSE
Condizioni attuali

Chiaro Chiaro
Pressione 1011.92 (hPa) - 29.88 (inHg)
Visibilità 6.2 (miglio) - 10 (km)
Aeroporto
Codice-Aeroporto EFPO

Posizione: Pori Airport
Distanza: 56 (km)

Metar:
EFPO 110550Z AUTO 16010KT CAVOK 15/08 Q1012

Ore: 11-05-2021 08:50 EEST